sensor_id;sensor_type;location;lat;lon;timestamp;P1;durP1;ratioP1;P2;durP2;ratioP2
55455;SDS011;63021;52.836;6.376;2023-07-31T00:00:22;2.92;;;2.30;;
55455;SDS011;63021;52.836;6.376;2023-07-31T00:02:47;2.80;;;2.60;;
55455;SDS011;63021;52.836;6.376;2023-07-31T00:05:13;6.57;;;2.58;;
55455;SDS011;63021;52.836;6.376;2023-07-31T00:07:38;3.53;;;2.38;;
55455;SDS011;63021;52.836;6.376;2023-07-31T00:10:03;2.97;;;2.67;;
55455;SDS011;63021;52.836;6.376;2023-07-31T00:12:29;4.47;;;2.58;;
55455;SDS011;63021;52.836;6.376;2023-07-31T00:14:54;3.00;;;2.80;;
55455;SDS011;63021;52.836;6.376;2023-07-31T00:17:20;3.55;;;2.50;;
55455;SDS011;63021;52.836;6.376;2023-07-31T00:19:45;2.83;;;2.50;;
55455;SDS011;63021;52.836;6.376;2023-07-31T00:22:15;4.05;;;2.55;;
55455;SDS011;63021;52.836;6.376;2023-07-31T00:24:41;3.45;;;2.38;;
55455;SDS011;63021;52.836;6.376;2023-07-31T00:27:07;4.90;;;2.60;;
55455;SDS011;63021;52.836;6.376;2023-07-31T00:29:32;2.63;;;2.40;;
55455;SDS011;63021;52.836;6.376;2023-07-31T00:31:57;3.35;;;2.20;;
55455;SDS011;63021;52.836;6.376;2023-07-31T00:34:23;4.95;;;2.95;;
55455;SDS011;63021;52.836;6.376;2023-07-31T00:36:48;4.03;;;2.42;;
55455;SDS011;63021;52.836;6.376;2023-07-31T00:39:13;2.90;;;2.17;;
55455;SDS011;63021;52.836;6.376;2023-07-31T00:41:40;3.08;;;2.00;;
55455;SDS011;63021;52.836;6.376;2023-07-31T00:44:05;3.95;;;2.20;;
55455;SDS011;63021;52.836;6.376;2023-07-31T00:46:31;2.53;;;2.00;;
55455;SDS011;63021;52.836;6.376;2023-07-31T00:48:56;2.13;;;1.85;;
55455;SDS011;63021;52.836;6.376;2023-07-31T00:51:22;2.30;;;1.60;;
55455;SDS011;63021;52.836;6.376;2023-07-31T00:53:47;2.92;;;1.50;;
55455;SDS011;63021;52.836;6.376;2023-07-31T00:56:13;2.25;;;2.05;;
55455;SDS011;63021;52.836;6.376;2023-07-31T00:58:39;2.40;;;1.73;;
55455;SDS011;63021;52.836;6.376;2023-07-31T01:01:04;1.52;;;1.40;;
55455;SDS011;63021;52.836;6.376;2023-07-31T01:03:30;2.00;;;1.40;;
55455;SDS011;63021;52.836;6.376;2023-07-31T01:08:48;1.30;;;1.20;;
55455;SDS011;63021;52.836;6.376;2023-07-31T01:11:22;1.85;;;1.00;;
55455;SDS011;63021;52.836;6.376;2023-07-31T01:13:53;2.30;;;1.50;;
55455;SDS011;63021;52.836;6.376;2023-07-31T01:16:21;1.27;;;1.17;;
55455;SDS011;63021;52.836;6.376;2023-07-31T01:18:47;8.77;;;2.53;;
55455;SDS011;63021;52.836;6.376;2023-07-31T01:21:20;1.70;;;1.60;;
55455;SDS011;63021;52.836;6.376;2023-07-31T01:26:36;1.90;;;1.00;;
55455;SDS011;63021;52.836;6.376;2023-07-31T01:29:12;1.88;;;0.90;;
55455;SDS011;63021;52.836;6.376;2023-07-31T01:32:01;1.25;;;0.98;;
55455;SDS011;63021;52.836;6.376;2023-07-31T01:34:28;1.63;;;1.10;;
55455;SDS011;63021;52.836;6.376;2023-07-31T01:36:55;0.93;;;0.93;;
55455;SDS011;63021;52.836;6.376;2023-07-31T01:39:21;1.15;;;1.05;;
55455;SDS011;63021;52.836;6.376;2023-07-31T01:41:46;1.90;;;1.20;;
55455;SDS011;63021;52.836;6.376;2023-07-31T01:44:12;1.95;;;0.90;;
55455;SDS011;63021;52.836;6.376;2023-07-31T01:46:37;2.15;;;1.00;;
55455;SDS011;63021;52.836;6.376;2023-07-31T01:49:02;1.45;;;1.00;;
55455;SDS011;63021;52.836;6.376;2023-07-31T01:51:30;1.17;;;1.08;;
55455;SDS011;63021;52.836;6.376;2023-07-31T01:53:58;2.83;;;0.90;;
55455;SDS011;63021;52.836;6.376;2023-07-31T01:56:24;0.90;;;0.90;;
55455;SDS011;63021;52.836;6.376;2023-07-31T01:58:50;1.02;;;0.90;;
55455;SDS011;63021;52.836;6.376;2023-07-31T02:01:15;1.00;;;1.00;;
55455;SDS011;63021;52.836;6.376;2023-07-31T02:03:40;2.63;;;1.42;;
55455;SDS011;63021;52.836;6.376;2023-07-31T02:06:07;2.42;;;1.20;;
55455;SDS011;63021;52.836;6.376;2023-07-31T02:08:32;0.65;;;0.60;;
55455;SDS011;63021;52.836;6.376;2023-07-31T02:10:58;0.90;;;0.90;;
55455;SDS011;63021;52.836;6.376;2023-07-31T02:13:23;0.70;;;0.70;;
55455;SDS011;63021;52.836;6.376;2023-07-31T02:15:48;1.00;;;0.90;;
55455;SDS011;63021;52.836;6.376;2023-07-31T02:18:14;0.80;;;0.80;;
55455;SDS011;63021;52.836;6.376;2023-07-31T02:20:39;0.95;;;0.95;;
55455;SDS011;63021;52.836;6.376;2023-07-31T02:23:04;1.10;;;1.10;;
55455;SDS011;63021;52.836;6.376;2023-07-31T02:25:30;1.50;;;0.70;;
55455;SDS011;63021;52.836;6.376;2023-07-31T02:27:55;1.08;;;0.77;;
55455;SDS011;63021;52.836;6.376;2023-07-31T02:30:21;0.68;;;0.68;;
55455;SDS011;63021;52.836;6.376;2023-07-31T02:32:47;1.45;;;1.35;;
55455;SDS011;63021;52.836;6.376;2023-07-31T02:35:12;0.98;;;0.70;;
55455;SDS011;63021;52.836;6.376;2023-07-31T02:37:40;1.48;;;0.77;;
55455;SDS011;63021;52.836;6.376;2023-07-31T02:40:07;1.92;;;1.80;;
55455;SDS011;63021;52.836;6.376;2023-07-31T02:42:32;1.83;;;0.90;;
55455;SDS011;63021;52.836;6.376;2023-07-31T02:44:57;0.85;;;0.70;;
55455;SDS011;63021;52.836;6.376;2023-07-31T02:47:23;1.48;;;1.00;;
55455;SDS011;63021;52.836;6.376;2023-07-31T02:49:48;2.83;;;1.10;;
55455;SDS011;63021;52.836;6.376;2023-07-31T02:52:14;1.17;;;1.10;;
55455;SDS011;63021;52.836;6.376;2023-07-31T02:54:39;1.40;;;1.17;;
55455;SDS011;63021;52.836;6.376;2023-07-31T02:57:05;2.25;;;1.20;;
55455;SDS011;63021;52.836;6.376;2023-07-31T02:59:30;1.50;;;1.40;;
55455;SDS011;63021;52.836;6.376;2023-07-31T03:01:56;1.20;;;1.10;;
55455;SDS011;63021;52.836;6.376;2023-07-31T03:04:22;1.20;;;1.10;;
55455;SDS011;63021;52.836;6.376;2023-07-31T03:06:47;1.45;;;1.30;;
55455;SDS011;63021;52.836;6.376;2023-07-31T03:09:12;1.10;;;1.05;;
55455;SDS011;63021;52.836;6.376;2023-07-31T03:11:38;1.38;;;1.17;;
55455;SDS011;63021;52.836;6.376;2023-07-31T03:14:03;2.90;;;1.10;;
55455;SDS011;63021;52.836;6.376;2023-07-31T03:16:29;3.80;;;1.90;;
55455;SDS011;63021;52.836;6.376;2023-07-31T03:18:54;2.55;;;1.60;;
55455;SDS011;63021;52.836;6.376;2023-07-31T03:21:19;2.58;;;1.42;;
55455;SDS011;63021;52.836;6.376;2023-07-31T03:23:45;3.10;;;1.80;;
55455;SDS011;63021;52.836;6.376;2023-07-31T03:26:10;1.98;;;1.83;;
55455;SDS011;63021;52.836;6.376;2023-07-31T03:28:36;3.75;;;1.52;;
55455;SDS011;63021;52.836;6.376;2023-07-31T03:31:02;2.25;;;1.45;;
55455;SDS011;63021;52.836;6.376;2023-07-31T03:33:27;2.72;;;1.95;;
55455;SDS011;63021;52.836;6.376;2023-07-31T03:35:53;2.85;;;1.92;;
55455;SDS011;63021;52.836;6.376;2023-07-31T03:38:18;6.20;;;1.73;;
55455;SDS011;63021;52.836;6.376;2023-07-31T03:40:44;2.53;;;1.38;;
55455;SDS011;63021;52.836;6.376;2023-07-31T03:43:09;1.48;;;1.13;;
55455;SDS011;63021;52.836;6.376;2023-07-31T03:45:35;1.42;;;1.30;;
55455;SDS011;63021;52.836;6.376;2023-07-31T03:48:01;2.17;;;1.10;;
55455;SDS011;63021;52.836;6.376;2023-07-31T03:50:26;4.22;;;1.50;;
55455;SDS011;63021;52.836;6.376;2023-07-31T03:52:52;3.45;;;1.70;;
55455;SDS011;63021;52.836;6.376;2023-07-31T03:55:17;3.45;;;1.00;;
55455;SDS011;63021;52.836;6.376;2023-07-31T03:57:43;1.85;;;1.10;;
55455;SDS011;63021;52.836;6.376;2023-07-31T04:00:09;3.90;;;1.70;;
55455;SDS011;63021;52.836;6.376;2023-07-31T04:02:35;5.03;;;3.03;;
55455;SDS011;63021;52.836;6.376;2023-07-31T04:05:00;4.85;;;2.20;;
55455;SDS011;63021;52.836;6.376;2023-07-31T04:07:25;5.38;;;2.53;;
55455;SDS011;63021;52.836;6.376;2023-07-31T04:09:51;7.05;;;3.78;;
55455;SDS011;63021;52.836;6.376;2023-07-31T04:12:16;7.80;;;3.30;;
55455;SDS011;63021;52.836;6.376;2023-07-31T04:14:41;9.00;;;3.97;;
55455;SDS011;63021;52.836;6.376;2023-07-31T04:17:07;9.35;;;3.65;;
55455;SDS011;63021;52.836;6.376;2023-07-31T04:19:32;9.23;;;4.13;;
55455;SDS011;63021;52.836;6.376;2023-07-31T04:21:57;8.57;;;3.83;;
55455;SDS011;63021;52.836;6.376;2023-07-31T04:24:23;9.05;;;4.43;;
55455;SDS011;63021;52.836;6.376;2023-07-31T04:26:51;7.03;;;3.88;;
55455;SDS011;63021;52.836;6.376;2023-07-31T04:29:17;14.65;;;4.10;;
55455;SDS011;63021;52.836;6.376;2023-07-31T04:31:43;14.73;;;4.25;;
55455;SDS011;63021;52.836;6.376;2023-07-31T04:34:08;8.18;;;4.05;;
55455;SDS011;63021;52.836;6.376;2023-07-31T04:36:34;9.85;;;4.03;;
55455;SDS011;63021;52.836;6.376;2023-07-31T04:39:00;11.70;;;4.40;;
55455;SDS011;63021;52.836;6.376;2023-07-31T04:41:26;9.65;;;4.32;;
55455;SDS011;63021;52.836;6.376;2023-07-31T04:43:51;9.25;;;4.35;;
55455;SDS011;63021;52.836;6.376;2023-07-31T04:46:17;12.63;;;5.20;;
55455;SDS011;63021;52.836;6.376;2023-07-31T04:48:42;10.85;;;4.78;;
55455;SDS011;63021;52.836;6.376;2023-07-31T04:51:08;13.38;;;5.57;;
55455;SDS011;63021;52.836;6.376;2023-07-31T04:53:34;10.57;;;4.43;;
55455;SDS011;63021;52.836;6.376;2023-07-31T04:56:00;13.13;;;4.78;;
55455;SDS011;63021;52.836;6.376;2023-07-31T04:58:25;12.73;;;4.97;;
55455;SDS011;63021;52.836;6.376;2023-07-31T05:00:51;16.20;;;5.45;;
55455;SDS011;63021;52.836;6.376;2023-07-31T05:03:16;16.02;;;6.20;;
55455;SDS011;63021;52.836;6.376;2023-07-31T05:05:41;16.45;;;6.15;;
55455;SDS011;63021;52.836;6.376;2023-07-31T05:08:07;14.25;;;6.13;;
55455;SDS011;63021;52.836;6.376;2023-07-31T05:10:33;16.98;;;6.00;;
55455;SDS011;63021;52.836;6.376;2023-07-31T05:12:59;19.42;;;6.25;;
55455;SDS011;63021;52.836;6.376;2023-07-31T05:15:24;24.02;;;6.30;;
55455;SDS011;63021;52.836;6.376;2023-07-31T05:17:49;15.65;;;6.32;;
55455;SDS011;63021;52.836;6.376;2023-07-31T05:20:15;19.48;;;6.75;;
55455;SDS011;63021;52.836;6.376;2023-07-31T05:22:40;21.90;;;6.47;;
55455;SDS011;63021;52.836;6.376;2023-07-31T05:25:06;16.88;;;6.10;;
55455;SDS011;63021;52.836;6.376;2023-07-31T05:27:32;18.58;;;6.03;;
55455;SDS011;63021;52.836;6.376;2023-07-31T05:29:57;17.88;;;6.38;;
55455;SDS011;63021;52.836;6.376;2023-07-31T05:32:23;21.75;;;6.68;;
55455;SDS011;63021;52.836;6.376;2023-07-31T05:34:50;25.88;;;6.60;;
55455;SDS011;63021;52.836;6.376;2023-07-31T05:37:17;23.20;;;7.80;;
55455;SDS011;63021;52.836;6.376;2023-07-31T05:39:42;25.83;;;7.18;;
55455;SDS011;63021;52.836;6.376;2023-07-31T05:42:08;18.90;;;6.68;;
55455;SDS011;63021;52.836;6.376;2023-07-31T05:44:33;21.05;;;7.07;;
55455;SDS011;63021;52.836;6.376;2023-07-31T05:46:59;26.30;;;8.85;;
55455;SDS011;63021;52.836;6.376;2023-07-31T05:49:24;29.85;;;8.10;;
55455;SDS011;63021;52.836;6.376;2023-07-31T05:51:49;26.27;;;7.03;;
55455;SDS011;63021;52.836;6.376;2023-07-31T05:54:15;21.48;;;7.13;;
55455;SDS011;63021;52.836;6.376;2023-07-31T05:56:40;29.55;;;8.80;;
55455;SDS011;63021;52.836;6.376;2023-07-31T05:59:06;19.88;;;6.75;;
55455;SDS011;63021;52.836;6.376;2023-07-31T06:01:31;17.58;;;5.63;;
55455;SDS011;63021;52.836;6.376;2023-07-31T06:03:57;20.38;;;6.35;;
55455;SDS011;63021;52.836;6.376;2023-07-31T06:06:22;18.25;;;5.95;;
55455;SDS011;63021;52.836;6.376;2023-07-31T06:08:47;17.80;;;6.50;;
55455;SDS011;63021;52.836;6.376;2023-07-31T06:11:13;18.02;;;6.38;;
55455;SDS011;63021;52.836;6.376;2023-07-31T06:13:38;18.05;;;6.18;;
55455;SDS011;63021;52.836;6.376;2023-07-31T06:16:04;19.33;;;6.80;;
55455;SDS011;63021;52.836;6.376;2023-07-31T06:18:34;23.70;;;6.82;;
55455;SDS011;63021;52.836;6.376;2023-07-31T06:20:59;22.27;;;7.55;;
55455;SDS011;63021;52.836;6.376;2023-07-31T06:23:25;24.65;;;7.90;;
55455;SDS011;63021;52.836;6.376;2023-07-31T06:25:50;21.42;;;8.18;;
55455;SDS011;63021;52.836;6.376;2023-07-31T06:28:15;16.42;;;5.97;;
55455;SDS011;63021;52.836;6.376;2023-07-31T06:30:44;21.65;;;7.13;;
55455;SDS011;63021;52.836;6.376;2023-07-31T06:33:09;22.13;;;7.03;;
55455;SDS011;63021;52.836;6.376;2023-07-31T06:35:34;26.98;;;7.40;;
55455;SDS011;63021;52.836;6.376;2023-07-31T06:38:00;23.58;;;8.05;;
55455;SDS011;63021;52.836;6.376;2023-07-31T06:40:27;25.27;;;7.65;;
55455;SDS011;63021;52.836;6.376;2023-07-31T06:42:52;16.90;;;8.02;;
55455;SDS011;63021;52.836;6.376;2023-07-31T06:45:18;25.42;;;7.75;;
55455;SDS011;63021;52.836;6.376;2023-07-31T06:47:43;26.65;;;8.88;;
55455;SDS011;63021;52.836;6.376;2023-07-31T06:50:09;24.60;;;8.02;;
55455;SDS011;63021;52.836;6.376;2023-07-31T06:52:34;20.38;;;7.85;;
55455;SDS011;63021;52.836;6.376;2023-07-31T06:55:00;22.20;;;7.75;;
55455;SDS011;63021;52.836;6.376;2023-07-31T06:57:28;15.32;;;6.30;;
55455;SDS011;63021;52.836;6.376;2023-07-31T06:59:53;13.32;;;5.60;;
55455;SDS011;63021;52.836;6.376;2023-07-31T07:02:19;11.02;;;5.22;;
55455;SDS011;63021;52.836;6.376;2023-07-31T07:04:44;10.68;;;4.95;;
55455;SDS011;63021;52.836;6.376;2023-07-31T07:07:10;15.45;;;4.72;;
55455;SDS011;63021;52.836;6.376;2023-07-31T07:09:35;9.55;;;3.88;;
55455;SDS011;63021;52.836;6.376;2023-07-31T07:12:00;9.43;;;4.10;;
55455;SDS011;63021;52.836;6.376;2023-07-31T07:14:26;8.77;;;4.65;;
55455;SDS011;63021;52.836;6.376;2023-07-31T07:16:54;9.70;;;3.53;;
55455;SDS011;63021;52.836;6.376;2023-07-31T07:19:22;8.30;;;4.38;;
55455;SDS011;63021;52.836;6.376;2023-07-31T07:21:48;8.68;;;4.32;;
55455;SDS011;63021;52.836;6.376;2023-07-31T07:24:13;7.50;;;3.50;;
55455;SDS011;63021;52.836;6.376;2023-07-31T07:26:38;6.82;;;3.53;;
55455;SDS011;63021;52.836;6.376;2023-07-31T07:29:04;6.38;;;3.70;;
55455;SDS011;63021;52.836;6.376;2023-07-31T07:31:32;7.47;;;3.78;;
55455;SDS011;63021;52.836;6.376;2023-07-31T07:33:59;5.72;;;2.90;;
55455;SDS011;63021;52.836;6.376;2023-07-31T07:36:27;4.47;;;2.97;;
55455;SDS011;63021;52.836;6.376;2023-07-31T07:38:53;6.47;;;2.88;;
55455;SDS011;63021;52.836;6.376;2023-07-31T07:41:19;5.32;;;2.80;;
55455;SDS011;63021;52.836;6.376;2023-07-31T07:43:44;5.90;;;2.72;;
55455;SDS011;63021;52.836;6.376;2023-07-31T07:46:10;4.85;;;3.17;;
55455;SDS011;63021;52.836;6.376;2023-07-31T07:48:35;4.43;;;2.63;;
55455;SDS011;63021;52.836;6.376;2023-07-31T07:51:01;5.65;;;2.92;;
55455;SDS011;63021;52.836;6.376;2023-07-31T07:53:27;4.70;;;2.65;;
55455;SDS011;63021;52.836;6.376;2023-07-31T07:55:52;3.50;;;2.28;;
55455;SDS011;63021;52.836;6.376;2023-07-31T07:58:18;4.25;;;2.50;;
55455;SDS011;63021;52.836;6.376;2023-07-31T08:00:48;3.20;;;2.35;;
55455;SDS011;63021;52.836;6.376;2023-07-31T08:03:15;11.38;;;2.40;;
55455;SDS011;63021;52.836;6.376;2023-07-31T08:05:42;2.40;;;1.98;;
55455;SDS011;63021;52.836;6.376;2023-07-31T08:08:07;4.80;;;2.00;;
55455;SDS011;63021;52.836;6.376;2023-07-31T08:10:33;2.17;;;1.98;;
55455;SDS011;63021;52.836;6.376;2023-07-31T08:12:58;2.15;;;1.80;;
55455;SDS011;63021;52.836;6.376;2023-07-31T08:15:23;3.45;;;1.95;;
55455;SDS011;63021;52.836;6.376;2023-07-31T08:17:49;3.20;;;2.00;;
55455;SDS011;63021;52.836;6.376;2023-07-31T08:20:14;1.88;;;1.60;;
55455;SDS011;63021;52.836;6.376;2023-07-31T08:22:40;3.95;;;1.83;;
55455;SDS011;63021;52.836;6.376;2023-07-31T08:25:06;3.03;;;1.70;;
55455;SDS011;63021;52.836;6.376;2023-07-31T08:27:32;1.77;;;1.67;;
55455;SDS011;63021;52.836;6.376;2023-07-31T08:29:57;4.07;;;1.92;;
55455;SDS011;63021;52.836;6.376;2023-07-31T08:32:23;2.30;;;2.00;;
55455;SDS011;63021;52.836;6.376;2023-07-31T08:34:48;2.67;;;2.08;;
55455;SDS011;63021;52.836;6.376;2023-07-31T08:37:14;2.30;;;2.10;;
55455;SDS011;63021;52.836;6.376;2023-07-31T08:39:39;1.55;;;1.45;;
55455;SDS011;63021;52.836;6.376;2023-07-31T08:42:07;4.15;;;1.80;;
55455;SDS011;63021;52.836;6.376;2023-07-31T08:44:34;2.70;;;1.75;;
55455;SDS011;63021;52.836;6.376;2023-07-31T08:47:01;5.65;;;1.60;;
55455;SDS011;63021;52.836;6.376;2023-07-31T08:49:27;1.58;;;1.48;;
55455;SDS011;63021;52.836;6.376;2023-07-31T08:51:54;2.72;;;2.22;;
55455;SDS011;63021;52.836;6.376;2023-07-31T08:54:20;2.65;;;1.30;;
55455;SDS011;63021;52.836;6.376;2023-07-31T08:56:46;2.42;;;1.42;;
55455;SDS011;63021;52.836;6.376;2023-07-31T08:59:11;3.05;;;1.10;;
55455;SDS011;63021;52.836;6.376;2023-07-31T09:01:40;1.35;;;1.25;;
55455;SDS011;63021;52.836;6.376;2023-07-31T09:04:12;1.25;;;1.10;;
55455;SDS011;63021;52.836;6.376;2023-07-31T09:06:39;1.60;;;1.50;;
55455;SDS011;63021;52.836;6.376;2023-07-31T09:09:05;1.40;;;1.13;;
55455;SDS011;63021;52.836;6.376;2023-07-31T09:11:31;1.10;;;1.10;;
55455;SDS011;63021;52.836;6.376;2023-07-31T09:13:57;2.95;;;1.45;;
55455;SDS011;63021;52.836;6.376;2023-07-31T09:16:29;3.03;;;1.20;;
55455;SDS011;63021;52.836;6.376;2023-07-31T09:18:57;1.13;;;1.05;;
55455;SDS011;63021;52.836;6.376;2023-07-31T09:21:23;1.15;;;1.10;;
55455;SDS011;63021;52.836;6.376;2023-07-31T09:23:50;2.58;;;1.27;;
55455;SDS011;63021;52.836;6.376;2023-07-31T09:26:32;0.75;;;0.75;;
55455;SDS011;63021;52.836;6.376;2023-07-31T09:28:59;0.90;;;0.90;;
55455;SDS011;63021;52.836;6.376;2023-07-31T09:31:38;1.92;;;1.50;;
55455;SDS011;63021;52.836;6.376;2023-07-31T09:34:05;1.65;;;0.93;;
55455;SDS011;63021;52.836;6.376;2023-07-31T09:36:31;0.90;;;0.90;;
55455;SDS011;63021;52.836;6.376;2023-07-31T09:39:00;1.10;;;0.70;;
55455;SDS011;63021;52.836;6.376;2023-07-31T09:41:27;1.05;;;0.80;;
55455;SDS011;63021;52.836;6.376;2023-07-31T09:43:53;0.82;;;0.70;;
55455;SDS011;63021;52.836;6.376;2023-07-31T09:46:20;0.73;;;0.60;;
55455;SDS011;63021;52.836;6.376;2023-07-31T09:48:46;1.48;;;0.80;;
55455;SDS011;63021;52.836;6.376;2023-07-31T09:51:12;1.63;;;1.05;;
55455;SDS011;63021;52.836;6.376;2023-07-31T09:53:37;1.30;;;0.70;;
55455;SDS011;63021;52.836;6.376;2023-07-31T09:56:02;1.27;;;1.17;;
55455;SDS011;63021;52.836;6.376;2023-07-31T09:58:29;1.80;;;1.10;;
55455;SDS011;63021;52.836;6.376;2023-07-31T10:00:55;1.55;;;0.90;;
55455;SDS011;63021;52.836;6.376;2023-07-31T10:03:23;1.20;;;1.10;;
55455;SDS011;63021;52.836;6.376;2023-07-31T10:05:50;3.92;;;1.30;;
55455;SDS011;63021;52.836;6.376;2023-07-31T10:08:16;1.45;;;1.35;;
55455;SDS011;63021;52.836;6.376;2023-07-31T10:10:45;2.10;;;1.90;;
55455;SDS011;63021;52.836;6.376;2023-07-31T10:13:14;1.55;;;1.45;;
55455;SDS011;63021;52.836;6.376;2023-07-31T10:15:40;1.13;;;1.10;;
55455;SDS011;63021;52.836;6.376;2023-07-31T10:18:08;1.30;;;0.98;;
55455;SDS011;63021;52.836;6.376;2023-07-31T10:20:34;0.80;;;0.80;;
55455;SDS011;63021;52.836;6.376;2023-07-31T10:23:01;1.15;;;1.08;;
55455;SDS011;63021;52.836;6.376;2023-07-31T10:25:27;1.05;;;0.98;;
55455;SDS011;63021;52.836;6.376;2023-07-31T10:27:54;3.40;;;0.85;;
55455;SDS011;63021;52.836;6.376;2023-07-31T10:30:22;0.70;;;0.70;;
55455;SDS011;63021;52.836;6.376;2023-07-31T10:32:52;0.60;;;0.60;;
55455;SDS011;63021;52.836;6.376;2023-07-31T10:35:19;1.25;;;0.70;;
55455;SDS011;63021;52.836;6.376;2023-07-31T10:37:47;0.57;;;0.57;;
55455;SDS011;63021;52.836;6.376;2023-07-31T10:40:15;0.60;;;0.60;;
55455;SDS011;63021;52.836;6.376;2023-07-31T10:45:23;0.60;;;0.57;;
55455;SDS011;63021;52.836;6.376;2023-07-31T10:48:05;0.40;;;0.40;;
55455;SDS011;63021;52.836;6.376;2023-07-31T10:50:36;1.60;;;0.90;;
55455;SDS011;63021;52.836;6.376;2023-07-31T10:53:03;0.88;;;0.60;;
55455;SDS011;63021;52.836;6.376;2023-07-31T10:58:08;0.50;;;0.50;;
55455;SDS011;63021;52.836;6.376;2023-07-31T11:00:39;0.70;;;0.52;;
55455;SDS011;63021;52.836;6.376;2023-07-31T11:03:08;1.00;;;0.60;;
55455;SDS011;63021;52.836;6.376;2023-07-31T11:08:31;1.52;;;0.80;;
55455;SDS011;63021;52.836;6.376;2023-07-31T11:13:27;4.82;;;1.48;;
55455;SDS011;63021;52.836;6.376;2023-07-31T11:15:56;1.60;;;0.90;;
55455;SDS011;63021;52.836;6.376;2023-07-31T11:18:21;2.45;;;1.00;;
55455;SDS011;63021;52.836;6.376;2023-07-31T11:20:47;2.78;;;1.13;;
55455;SDS011;63021;52.836;6.376;2023-07-31T11:23:15;2.83;;;1.10;;
55455;SDS011;63021;52.836;6.376;2023-07-31T11:25:44;1.48;;;1.00;;
55455;SDS011;63021;52.836;6.376;2023-07-31T11:28:11;2.17;;;1.60;;
55455;SDS011;63021;52.836;6.376;2023-07-31T11:30:38;1.40;;;1.30;;
55455;SDS011;63021;52.836;6.376;2023-07-31T11:33:08;6.03;;;1.80;;
55455;SDS011;63021;52.836;6.376;2023-07-31T11:35:35;0.95;;;0.90;;
55455;SDS011;63021;52.836;6.376;2023-07-31T11:38:08;2.30;;;1.20;;
55455;SDS011;63021;52.836;6.376;2023-07-31T11:40:43;1.77;;;1.35;;
55455;SDS011;63021;52.836;6.376;2023-07-31T11:43:09;4.00;;;1.85;;
55455;SDS011;63021;52.836;6.376;2023-07-31T11:45:36;5.10;;;2.88;;
55455;SDS011;63021;52.836;6.376;2023-07-31T11:48:03;5.75;;;2.60;;
55455;SDS011;63021;52.836;6.376;2023-07-31T11:50:29;3.63;;;2.17;;
55455;SDS011;63021;52.836;6.376;2023-07-31T11:52:59;4.40;;;2.80;;
55455;SDS011;63021;52.836;6.376;2023-07-31T11:55:27;5.20;;;2.42;;
55455;SDS011;63021;52.836;6.376;2023-07-31T11:57:54;7.38;;;3.35;;
55455;SDS011;63021;52.836;6.376;2023-07-31T12:00:22;6.13;;;2.88;;
55455;SDS011;63021;52.836;6.376;2023-07-31T12:02:48;4.90;;;2.20;;
55455;SDS011;63021;52.836;6.376;2023-07-31T12:05:15;6.82;;;2.55;;
55455;SDS011;63021;52.836;6.376;2023-07-31T12:10:23;3.72;;;1.13;;
55455;SDS011;63021;52.836;6.376;2023-07-31T12:12:59;3.33;;;1.02;;
55455;SDS011;63021;52.836;6.376;2023-07-31T12:15:29;0.88;;;0.70;;
55455;SDS011;63021;52.836;6.376;2023-07-31T12:17:57;2.60;;;1.20;;
55455;SDS011;63021;52.836;6.376;2023-07-31T12:20:23;2.05;;;0.70;;
55455;SDS011;63021;52.836;6.376;2023-07-31T12:22:48;1.45;;;1.20;;
55455;SDS011;63021;52.836;6.376;2023-07-31T12:25:16;2.65;;;0.93;;
55455;SDS011;63021;52.836;6.376;2023-07-31T12:27:45;1.75;;;1.10;;
55455;SDS011;63021;52.836;6.376;2023-07-31T12:30:27;3.15;;;1.50;;
55455;SDS011;63021;52.836;6.376;2023-07-31T12:32:57;3.90;;;1.83;;
55455;SDS011;63021;52.836;6.376;2023-07-31T12:35:23;4.50;;;1.38;;
55455;SDS011;63021;52.836;6.376;2023-07-31T12:37:48;5.57;;;1.92;;
55455;SDS011;63021;52.836;6.376;2023-07-31T12:40:14;4.32;;;1.60;;
55455;SDS011;63021;52.836;6.376;2023-07-31T12:42:40;2.58;;;1.70;;
55455;SDS011;63021;52.836;6.376;2023-07-31T12:45:07;7.03;;;2.42;;
55455;SDS011;63021;52.836;6.376;2023-07-31T12:47:32;6.10;;;2.88;;
55455;SDS011;63021;52.836;6.376;2023-07-31T12:49:58;7.88;;;3.45;;
55455;SDS011;63021;52.836;6.376;2023-07-31T12:52:23;7.40;;;2.80;;
55455;SDS011;63021;52.836;6.376;2023-07-31T12:54:49;6.65;;;2.40;;
55455;SDS011;63021;52.836;6.376;2023-07-31T12:57:14;5.95;;;2.72;;
55455;SDS011;63021;52.836;6.376;2023-07-31T12:59:39;9.85;;;2.60;;
55455;SDS011;63021;52.836;6.376;2023-07-31T13:02:05;7.22;;;2.70;;
55455;SDS011;63021;52.836;6.376;2023-07-31T13:04:30;7.28;;;3.03;;
55455;SDS011;63021;52.836;6.376;2023-07-31T13:06:55;8.40;;;3.13;;
55455;SDS011;63021;52.836;6.376;2023-07-31T13:09:21;6.45;;;2.45;;
55455;SDS011;63021;52.836;6.376;2023-07-31T13:11:46;12.10;;;2.58;;
55455;SDS011;63021;52.836;6.376;2023-07-31T13:14:12;7.78;;;2.83;;
55455;SDS011;63021;52.836;6.376;2023-07-31T13:16:37;9.77;;;3.00;;
55455;SDS011;63021;52.836;6.376;2023-07-31T13:19:03;23.13;;;5.63;;
55455;SDS011;63021;52.836;6.376;2023-07-31T13:21:28;8.85;;;2.35;;
55455;SDS011;63021;52.836;6.376;2023-07-31T13:23:54;5.57;;;2.03;;
55455;SDS011;63021;52.836;6.376;2023-07-31T13:26:19;11.13;;;3.00;;
55455;SDS011;63021;52.836;6.376;2023-07-31T13:28:44;10.32;;;2.33;;
55455;SDS011;63021;52.836;6.376;2023-07-31T13:31:10;5.30;;;2.30;;
55455;SDS011;63021;52.836;6.376;2023-07-31T13:33:36;5.47;;;2.17;;
55455;SDS011;63021;52.836;6.376;2023-07-31T13:36:02;9.77;;;2.63;;
55455;SDS011;63021;52.836;6.376;2023-07-31T13:38:28;9.05;;;2.88;;
55455;SDS011;63021;52.836;6.376;2023-07-31T13:40:54;8.30;;;2.83;;
55455;SDS011;63021;52.836;6.376;2023-07-31T13:43:19;6.43;;;2.80;;
55455;SDS011;63021;52.836;6.376;2023-07-31T13:45:44;5.10;;;2.00;;
55455;SDS011;63021;52.836;6.376;2023-07-31T13:48:10;8.20;;;3.30;;
55455;SDS011;63021;52.836;6.376;2023-07-31T13:50:35;8.90;;;1.92;;
55455;SDS011;63021;52.836;6.376;2023-07-31T13:53:00;5.90;;;2.20;;
55455;SDS011;63021;52.836;6.376;2023-07-31T13:55:26;6.93;;;2.53;;
55455;SDS011;63021;52.836;6.376;2023-07-31T13:57:51;6.07;;;2.20;;
55455;SDS011;63021;52.836;6.376;2023-07-31T14:00:19;7.57;;;3.00;;
55455;SDS011;63021;52.836;6.376;2023-07-31T14:02:44;6.82;;;2.35;;
55455;SDS011;63021;52.836;6.376;2023-07-31T14:05:10;9.50;;;2.72;;
55455;SDS011;63021;52.836;6.376;2023-07-31T14:07:37;6.32;;;2.83;;
55455;SDS011;63021;52.836;6.376;2023-07-31T14:10:03;7.30;;;2.67;;
55455;SDS011;63021;52.836;6.376;2023-07-31T14:12:29;11.38;;;3.53;;
55455;SDS011;63021;52.836;6.376;2023-07-31T14:14:54;8.20;;;3.05;;
55455;SDS011;63021;52.836;6.376;2023-07-31T14:17:19;6.57;;;2.97;;
55455;SDS011;63021;52.836;6.376;2023-07-31T14:19:45;5.45;;;2.55;;
55455;SDS011;63021;52.836;6.376;2023-07-31T14:22:10;5.82;;;3.00;;
55455;SDS011;63021;52.836;6.376;2023-07-31T14:24:35;5.85;;;2.97;;
55455;SDS011;63021;52.836;6.376;2023-07-31T14:27:01;9.13;;;2.97;;
55455;SDS011;63021;52.836;6.376;2023-07-31T14:29:26;10.18;;;3.03;;
55455;SDS011;63021;52.836;6.376;2023-07-31T14:31:52;8.10;;;3.50;;
55455;SDS011;63021;52.836;6.376;2023-07-31T14:34:17;5.70;;;2.55;;
55455;SDS011;63021;52.836;6.376;2023-07-31T14:36:43;9.55;;;2.60;;
55455;SDS011;63021;52.836;6.376;2023-07-31T14:39:09;5.28;;;2.65;;
55455;SDS011;63021;52.836;6.376;2023-07-31T14:41:34;7.78;;;2.40;;
55455;SDS011;63021;52.836;6.376;2023-07-31T14:44:00;4.95;;;2.60;;
55455;SDS011;63021;52.836;6.376;2023-07-31T14:46:25;8.02;;;3.50;;
55455;SDS011;63021;52.836;6.376;2023-07-31T14:48:50;7.22;;;2.78;;
55455;SDS011;63021;52.836;6.376;2023-07-31T14:51:16;9.75;;;2.63;;
55455;SDS011;63021;52.836;6.376;2023-07-31T14:53:42;4.68;;;2.22;;
55455;SDS011;63021;52.836;6.376;2023-07-31T14:56:08;9.18;;;2.92;;
55455;SDS011;63021;52.836;6.376;2023-07-31T14:58:33;7.53;;;2.28;;